sensor_id;sensor_type;location;lat;lon;timestamp;P1;durP1;ratioP1;P2;durP2;ratioP2
72611;SDS011;60655;52.182;4.474;2023-07-31T00:00:25;32.35;;;5.82;;
72611;SDS011;60655;52.182;4.474;2023-07-31T00:02:25;25.88;;;5.38;;
72611;SDS011;60655;52.182;4.474;2023-07-31T00:04:26;30.92;;;5.30;;
72611;SDS011;60655;52.182;4.474;2023-07-31T00:06:27;30.52;;;5.15;;
72611;SDS011;60655;52.182;4.474;2023-07-31T00:08:28;36.65;;;5.53;;
72611;SDS011;60655;52.182;4.474;2023-07-31T00:10:29;26.63;;;5.20;;
72611;SDS011;60655;52.182;4.474;2023-07-31T00:12:30;28.13;;;4.93;;
72611;SDS011;60655;52.182;4.474;2023-07-31T00:14:31;27.55;;;4.97;;
72611;SDS011;60655;52.182;4.474;2023-07-31T00:16:32;19.70;;;3.90;;
72611;SDS011;60655;52.182;4.474;2023-07-31T00:18:33;20.67;;;3.80;;
72611;SDS011;60655;52.182;4.474;2023-07-31T00:20:34;18.45;;;3.40;;
72611;SDS011;60655;52.182;4.474;2023-07-31T00:22:35;16.25;;;3.20;;
72611;SDS011;60655;52.182;4.474;2023-07-31T00:24:37;17.98;;;2.40;;
72611;SDS011;60655;52.182;4.474;2023-07-31T00:26:37;16.85;;;2.90;;
72611;SDS011;60655;52.182;4.474;2023-07-31T00:28:38;8.45;;;2.03;;
72611;SDS011;60655;52.182;4.474;2023-07-31T00:30:39;13.45;;;2.70;;
72611;SDS011;60655;52.182;4.474;2023-07-31T00:32:40;14.65;;;3.03;;
72611;SDS011;60655;52.182;4.474;2023-07-31T00:34:41;14.65;;;3.42;;
72611;SDS011;60655;52.182;4.474;2023-07-31T00:36:42;24.73;;;3.88;;
72611;SDS011;60655;52.182;4.474;2023-07-31T00:38:43;27.25;;;4.47;;
72611;SDS011;60655;52.182;4.474;2023-07-31T00:40:44;22.67;;;4.60;;
72611;SDS011;60655;52.182;4.474;2023-07-31T00:42:45;23.80;;;4.90;;
72611;SDS011;60655;52.182;4.474;2023-07-31T00:44:46;32.15;;;5.13;;
72611;SDS011;60655;52.182;4.474;2023-07-31T00:46:47;29.10;;;5.07;;
72611;SDS011;60655;52.182;4.474;2023-07-31T00:48:49;28.38;;;5.15;;
72611;SDS011;60655;52.182;4.474;2023-07-31T00:50:50;26.67;;;6.03;;
72611;SDS011;60655;52.182;4.474;2023-07-31T00:52:51;33.72;;;5.75;;
72611;SDS011;60655;52.182;4.474;2023-07-31T00:54:52;36.38;;;5.60;;
72611;SDS011;60655;52.182;4.474;2023-07-31T00:56:53;27.50;;;5.22;;
72611;SDS011;60655;52.182;4.474;2023-07-31T00:58:55;21.17;;;5.43;;
72611;SDS011;60655;52.182;4.474;2023-07-31T01:00:56;28.73;;;5.32;;
72611;SDS011;60655;52.182;4.474;2023-07-31T01:02:57;24.98;;;4.95;;
72611;SDS011;60655;52.182;4.474;2023-07-31T01:04:59;25.83;;;4.88;;
72611;SDS011;60655;52.182;4.474;2023-07-31T01:07:19;21.45;;;4.78;;
72611;SDS011;60655;52.182;4.474;2023-07-31T01:09:52;22.80;;;4.53;;
72611;SDS011;60655;52.182;4.474;2023-07-31T01:12:03;25.42;;;4.80;;
72611;SDS011;60655;52.182;4.474;2023-07-31T01:14:07;25.52;;;5.25;;
72611;SDS011;60655;52.182;4.474;2023-07-31T01:16:08;29.73;;;5.47;;
72611;SDS011;60655;52.182;4.474;2023-07-31T01:18:09;26.40;;;5.22;;
72611;SDS011;60655;52.182;4.474;2023-07-31T01:20:11;27.52;;;5.50;;
72611;SDS011;60655;52.182;4.474;2023-07-31T01:22:24;29.25;;;6.47;;
72611;SDS011;60655;52.182;4.474;2023-07-31T01:26:57;32.55;;;5.75;;
72611;SDS011;60655;52.182;4.474;2023-07-31T01:29:16;31.42;;;5.97;;
72611;SDS011;60655;52.182;4.474;2023-07-31T01:31:24;28.08;;;5.82;;
72611;SDS011;60655;52.182;4.474;2023-07-31T01:33:27;31.13;;;5.68;;
72611;SDS011;60655;52.182;4.474;2023-07-31T01:35:28;25.58;;;5.65;;
72611;SDS011;60655;52.182;4.474;2023-07-31T01:37:30;22.60;;;5.18;;
72611;SDS011;60655;52.182;4.474;2023-07-31T01:39:30;30.80;;;5.53;;
72611;SDS011;60655;52.182;4.474;2023-07-31T01:41:31;25.10;;;5.05;;
72611;SDS011;60655;52.182;4.474;2023-07-31T01:43:32;31.45;;;5.65;;
72611;SDS011;60655;52.182;4.474;2023-07-31T01:45:33;27.73;;;5.93;;
72611;SDS011;60655;52.182;4.474;2023-07-31T01:47:34;24.50;;;5.47;;
72611;SDS011;60655;52.182;4.474;2023-07-31T01:49:35;31.02;;;5.63;;
72611;SDS011;60655;52.182;4.474;2023-07-31T01:51:36;28.60;;;6.10;;
72611;SDS011;60655;52.182;4.474;2023-07-31T01:53:37;22.92;;;5.20;;
72611;SDS011;60655;52.182;4.474;2023-07-31T01:55:38;28.70;;;6.05;;
72611;SDS011;60655;52.182;4.474;2023-07-31T01:57:39;20.13;;;5.15;;
72611;SDS011;60655;52.182;4.474;2023-07-31T01:59:40;27.02;;;5.20;;
72611;SDS011;60655;52.182;4.474;2023-07-31T02:01:41;25.02;;;5.15;;
72611;SDS011;60655;52.182;4.474;2023-07-31T02:03:42;30.20;;;5.28;;
72611;SDS011;60655;52.182;4.474;2023-07-31T02:05:44;24.42;;;5.13;;
72611;SDS011;60655;52.182;4.474;2023-07-31T02:07:48;26.30;;;5.38;;
72611;SDS011;60655;52.182;4.474;2023-07-31T02:09:49;28.42;;;5.00;;
72611;SDS011;60655;52.182;4.474;2023-07-31T02:11:50;23.00;;;4.40;;
72611;SDS011;60655;52.182;4.474;2023-07-31T02:13:51;22.77;;;4.97;;
72611;SDS011;60655;52.182;4.474;2023-07-31T02:15:52;23.40;;;4.72;;
72611;SDS011;60655;52.182;4.474;2023-07-31T02:17:53;22.88;;;4.70;;
72611;SDS011;60655;52.182;4.474;2023-07-31T02:19:54;27.38;;;4.93;;
72611;SDS011;60655;52.182;4.474;2023-07-31T02:21:55;21.25;;;4.15;;
72611;SDS011;60655;52.182;4.474;2023-07-31T02:23:56;27.63;;;4.90;;
72611;SDS011;60655;52.182;4.474;2023-07-31T02:25:57;24.50;;;5.10;;
72611;SDS011;60655;52.182;4.474;2023-07-31T02:27:57;19.20;;;4.70;;
72611;SDS011;60655;52.182;4.474;2023-07-31T02:29:58;21.48;;;4.93;;
72611;SDS011;60655;52.182;4.474;2023-07-31T02:32:00;25.40;;;4.70;;
72611;SDS011;60655;52.182;4.474;2023-07-31T02:34:00;24.45;;;5.05;;
72611;SDS011;60655;52.182;4.474;2023-07-31T02:36:01;24.00;;;5.38;;
72611;SDS011;60655;52.182;4.474;2023-07-31T02:38:02;21.67;;;4.55;;
72611;SDS011;60655;52.182;4.474;2023-07-31T02:40:04;25.33;;;5.10;;
72611;SDS011;60655;52.182;4.474;2023-07-31T02:42:05;36.45;;;5.32;;
72611;SDS011;60655;52.182;4.474;2023-07-31T02:44:06;29.20;;;5.65;;
72611;SDS011;60655;52.182;4.474;2023-07-31T02:46:07;26.35;;;5.55;;
72611;SDS011;60655;52.182;4.474;2023-07-31T02:48:08;26.48;;;5.30;;
72611;SDS011;60655;52.182;4.474;2023-07-31T02:50:09;22.35;;;4.93;;
72611;SDS011;60655;52.182;4.474;2023-07-31T02:52:10;27.92;;;5.13;;
72611;SDS011;60655;52.182;4.474;2023-07-31T02:54:11;24.58;;;4.63;;
72611;SDS011;60655;52.182;4.474;2023-07-31T02:56:12;23.45;;;5.03;;
72611;SDS011;60655;52.182;4.474;2023-07-31T02:58:13;25.52;;;5.47;;
72611;SDS011;60655;52.182;4.474;2023-07-31T03:00:14;27.88;;;4.82;;
72611;SDS011;60655;52.182;4.474;2023-07-31T03:02:15;30.67;;;5.28;;
72611;SDS011;60655;52.182;4.474;2023-07-31T03:04:16;26.77;;;5.32;;
72611;SDS011;60655;52.182;4.474;2023-07-31T03:06:17;21.67;;;5.35;;
72611;SDS011;60655;52.182;4.474;2023-07-31T03:08:18;28.48;;;5.45;;
72611;SDS011;60655;52.182;4.474;2023-07-31T03:10:19;25.40;;;4.88;;
72611;SDS011;60655;52.182;4.474;2023-07-31T03:12:19;33.50;;;5.60;;
72611;SDS011;60655;52.182;4.474;2023-07-31T03:14:20;30.65;;;5.68;;
72611;SDS011;60655;52.182;4.474;2023-07-31T03:16:21;22.10;;;5.18;;
72611;SDS011;60655;52.182;4.474;2023-07-31T03:18:23;29.02;;;5.30;;
72611;SDS011;60655;52.182;4.474;2023-07-31T03:20:23;21.58;;;4.88;;
72611;SDS011;60655;52.182;4.474;2023-07-31T03:22:24;28.33;;;5.55;;
72611;SDS011;60655;52.182;4.474;2023-07-31T03:24:26;29.48;;;5.63;;
72611;SDS011;60655;52.182;4.474;2023-07-31T03:26:27;21.45;;;4.88;;
72611;SDS011;60655;52.182;4.474;2023-07-31T03:28:28;38.20;;;5.75;;
72611;SDS011;60655;52.182;4.474;2023-07-31T03:30:29;27.63;;;5.20;;
72611;SDS011;60655;52.182;4.474;2023-07-31T03:32:30;28.30;;;6.05;;
72611;SDS011;60655;52.182;4.474;2023-07-31T03:34:31;32.53;;;5.57;;
72611;SDS011;60655;52.182;4.474;2023-07-31T03:36:32;23.75;;;5.75;;
72611;SDS011;60655;52.182;4.474;2023-07-31T03:38:34;23.83;;;5.57;;
72611;SDS011;60655;52.182;4.474;2023-07-31T03:40:35;35.42;;;5.80;;
72611;SDS011;60655;52.182;4.474;2023-07-31T03:42:36;35.45;;;6.05;;
72611;SDS011;60655;52.182;4.474;2023-07-31T03:44:37;30.23;;;5.13;;
72611;SDS011;60655;52.182;4.474;2023-07-31T03:46:38;33.15;;;5.78;;
72611;SDS011;60655;52.182;4.474;2023-07-31T03:48:39;27.98;;;5.95;;
72611;SDS011;60655;52.182;4.474;2023-07-31T03:50:40;29.05;;;5.32;;
72611;SDS011;60655;52.182;4.474;2023-07-31T03:52:41;29.02;;;5.60;;
72611;SDS011;60655;52.182;4.474;2023-07-31T03:54:42;27.85;;;5.13;;
72611;SDS011;60655;52.182;4.474;2023-07-31T03:56:45;24.17;;;5.22;;
72611;SDS011;60655;52.182;4.474;2023-07-31T03:58:46;26.83;;;5.65;;
72611;SDS011;60655;52.182;4.474;2023-07-31T04:00:47;23.58;;;5.03;;
72611;SDS011;60655;52.182;4.474;2023-07-31T04:02:48;20.08;;;4.75;;
72611;SDS011;60655;52.182;4.474;2023-07-31T04:04:48;12.88;;;3.25;;
72611;SDS011;60655;52.182;4.474;2023-07-31T04:06:49;18.70;;;3.42;;
72611;SDS011;60655;52.182;4.474;2023-07-31T04:08:50;14.57;;;3.15;;
72611;SDS011;60655;52.182;4.474;2023-07-31T04:10:51;18.52;;;2.95;;
72611;SDS011;60655;52.182;4.474;2023-07-31T04:12:52;15.90;;;3.00;;
72611;SDS011;60655;52.182;4.474;2023-07-31T04:14:53;16.70;;;2.95;;
72611;SDS011;60655;52.182;4.474;2023-07-31T04:16:54;19.42;;;2.83;;
72611;SDS011;60655;52.182;4.474;2023-07-31T04:18:55;12.02;;;2.65;;
72611;SDS011;60655;52.182;4.474;2023-07-31T04:20:56;11.60;;;2.33;;
72611;SDS011;60655;52.182;4.474;2023-07-31T04:22:59;12.07;;;2.00;;
72611;SDS011;60655;52.182;4.474;2023-07-31T04:25:00;12.52;;;2.45;;
72611;SDS011;60655;52.182;4.474;2023-07-31T04:27:01;11.57;;;2.15;;
72611;SDS011;60655;52.182;4.474;2023-07-31T04:29:02;10.48;;;2.20;;
72611;SDS011;60655;52.182;4.474;2023-07-31T04:31:02;8.05;;;1.77;;
72611;SDS011;60655;52.182;4.474;2023-07-31T04:33:03;9.00;;;2.42;;
72611;SDS011;60655;52.182;4.474;2023-07-31T04:35:05;7.35;;;2.10;;
72611;SDS011;60655;52.182;4.474;2023-07-31T04:37:06;9.00;;;1.90;;
72611;SDS011;60655;52.182;4.474;2023-07-31T04:39:07;7.07;;;1.88;;
72611;SDS011;60655;52.182;4.474;2023-07-31T04:41:08;6.25;;;1.20;;
72611;SDS011;60655;52.182;4.474;2023-07-31T04:43:09;8.95;;;1.42;;
72611;SDS011;60655;52.182;4.474;2023-07-31T04:45:10;11.35;;;1.60;;
72611;SDS011;60655;52.182;4.474;2023-07-31T04:47:11;6.47;;;1.00;;
72611;SDS011;60655;52.182;4.474;2023-07-31T04:49:12;7.03;;;1.27;;
72611;SDS011;60655;52.182;4.474;2023-07-31T04:51:13;5.00;;;1.17;;
72611;SDS011;60655;52.182;4.474;2023-07-31T04:53:14;7.65;;;1.30;;
72611;SDS011;60655;52.182;4.474;2023-07-31T04:55:15;6.63;;;1.00;;
72611;SDS011;60655;52.182;4.474;2023-07-31T04:57:16;4.70;;;1.20;;
72611;SDS011;60655;52.182;4.474;2023-07-31T04:59:17;6.40;;;1.08;;
72611;SDS011;60655;52.182;4.474;2023-07-31T05:01:18;4.93;;;0.90;;
72611;SDS011;60655;52.182;4.474;2023-07-31T05:03:18;5.53;;;0.80;;
72611;SDS011;60655;52.182;4.474;2023-07-31T05:05:19;5.70;;;0.98;;
72611;SDS011;60655;52.182;4.474;2023-07-31T05:07:20;2.17;;;0.70;;
72611;SDS011;60655;52.182;4.474;2023-07-31T05:09:21;6.65;;;1.20;;
72611;SDS011;60655;52.182;4.474;2023-07-31T05:11:22;6.28;;;0.82;;
72611;SDS011;60655;52.182;4.474;2023-07-31T05:13:23;5.40;;;1.00;;
72611;SDS011;60655;52.182;4.474;2023-07-31T05:15:24;5.82;;;1.10;;
72611;SDS011;60655;52.182;4.474;2023-07-31T05:17:25;7.55;;;1.42;;
72611;SDS011;60655;52.182;4.474;2023-07-31T05:19:26;4.30;;;1.02;;
72611;SDS011;60655;52.182;4.474;2023-07-31T05:21:27;4.30;;;1.23;;
72611;SDS011;60655;52.182;4.474;2023-07-31T05:23:28;7.75;;;1.23;;
72611;SDS011;60655;52.182;4.474;2023-07-31T05:25:29;4.28;;;1.00;;
72611;SDS011;60655;52.182;4.474;2023-07-31T05:27:31;5.30;;;1.40;;
72611;SDS011;60655;52.182;4.474;2023-07-31T05:29:32;6.63;;;1.23;;
72611;SDS011;60655;52.182;4.474;2023-07-31T05:31:33;7.55;;;1.42;;
72611;SDS011;60655;52.182;4.474;2023-07-31T05:33:34;7.25;;;1.30;;
72611;SDS011;60655;52.182;4.474;2023-07-31T05:35:34;7.97;;;1.40;;
72611;SDS011;60655;52.182;4.474;2023-07-31T05:37:36;4.30;;;1.10;;
72611;SDS011;60655;52.182;4.474;2023-07-31T05:39:37;5.57;;;1.20;;
72611;SDS011;60655;52.182;4.474;2023-07-31T05:41:37;7.75;;;1.58;;
72611;SDS011;60655;52.182;4.474;2023-07-31T05:43:38;9.98;;;1.52;;
72611;SDS011;60655;52.182;4.474;2023-07-31T05:45:39;8.85;;;1.55;;
72611;SDS011;60655;52.182;4.474;2023-07-31T05:47:41;7.53;;;1.42;;
72611;SDS011;60655;52.182;4.474;2023-07-31T05:49:42;9.32;;;1.83;;
72611;SDS011;60655;52.182;4.474;2023-07-31T05:51:43;5.85;;;1.30;;
72611;SDS011;60655;52.182;4.474;2023-07-31T05:53:43;4.72;;;1.35;;
72611;SDS011;60655;52.182;4.474;2023-07-31T05:55:44;6.82;;;1.25;;
72611;SDS011;60655;52.182;4.474;2023-07-31T05:57:45;7.70;;;1.30;;
72611;SDS011;60655;52.182;4.474;2023-07-31T05:59:46;7.22;;;1.42;;
72611;SDS011;60655;52.182;4.474;2023-07-31T06:01:47;8.13;;;1.52;;
72611;SDS011;60655;52.182;4.474;2023-07-31T06:03:48;6.55;;;1.55;;
72611;SDS011;60655;52.182;4.474;2023-07-31T06:05:49;9.27;;;1.40;;
72611;SDS011;60655;52.182;4.474;2023-07-31T06:07:50;7.07;;;1.60;;
72611;SDS011;60655;52.182;4.474;2023-07-31T06:09:51;8.88;;;1.90;;
72611;SDS011;60655;52.182;4.474;2023-07-31T06:11:52;10.15;;;1.60;;
72611;SDS011;60655;52.182;4.474;2023-07-31T06:13:53;9.68;;;1.75;;
72611;SDS011;60655;52.182;4.474;2023-07-31T06:15:54;9.88;;;1.70;;
72611;SDS011;60655;52.182;4.474;2023-07-31T06:17:55;10.30;;;1.80;;
72611;SDS011;60655;52.182;4.474;2023-07-31T06:19:57;6.43;;;1.73;;
72611;SDS011;60655;52.182;4.474;2023-07-31T06:21:58;11.88;;;1.70;;
72611;SDS011;60655;52.182;4.474;2023-07-31T06:23:59;13.52;;;2.13;;
72611;SDS011;60655;52.182;4.474;2023-07-31T06:26:00;8.77;;;1.92;;
72611;SDS011;60655;52.182;4.474;2023-07-31T06:28:01;14.80;;;1.98;;
72611;SDS011;60655;52.182;4.474;2023-07-31T06:30:02;11.50;;;2.33;;
72611;SDS011;60655;52.182;4.474;2023-07-31T06:32:03;14.88;;;2.20;;
72611;SDS011;60655;52.182;4.474;2023-07-31T06:34:04;12.20;;;2.22;;
72611;SDS011;60655;52.182;4.474;2023-07-31T06:36:05;16.85;;;2.47;;
72611;SDS011;60655;52.182;4.474;2023-07-31T06:38:06;14.88;;;2.33;;
72611;SDS011;60655;52.182;4.474;2023-07-31T06:40:08;13.07;;;2.22;;
72611;SDS011;60655;52.182;4.474;2023-07-31T06:42:09;16.70;;;2.33;;
72611;SDS011;60655;52.182;4.474;2023-07-31T06:44:11;11.73;;;2.15;;
72611;SDS011;60655;52.182;4.474;2023-07-31T06:46:12;10.15;;;2.30;;
72611;SDS011;60655;52.182;4.474;2023-07-31T06:48:13;8.90;;;2.17;;
72611;SDS011;60655;52.182;4.474;2023-07-31T06:50:58;17.08;;;3.08;;
72611;SDS011;60655;52.182;4.474;2023-07-31T06:52:59;12.52;;;2.78;;
72611;SDS011;60655;52.182;4.474;2023-07-31T06:55:14;11.85;;;2.78;;
72611;SDS011;60655;52.182;4.474;2023-07-31T06:57:20;16.48;;;2.75;;
72611;SDS011;60655;52.182;4.474;2023-07-31T06:59:21;13.20;;;3.03;;
72611;SDS011;60655;52.182;4.474;2023-07-31T07:01:22;14.35;;;3.00;;
72611;SDS011;60655;52.182;4.474;2023-07-31T07:03:23;16.23;;;3.20;;
72611;SDS011;60655;52.182;4.474;2023-07-31T07:05:24;16.85;;;3.60;;
72611;SDS011;60655;52.182;4.474;2023-07-31T07:07:25;15.32;;;3.10;;
72611;SDS011;60655;52.182;4.474;2023-07-31T07:09:26;16.38;;;3.03;;
72611;SDS011;60655;52.182;4.474;2023-07-31T07:11:27;19.17;;;3.45;;
72611;SDS011;60655;52.182;4.474;2023-07-31T07:13:28;18.55;;;3.35;;
72611;SDS011;60655;52.182;4.474;2023-07-31T07:15:29;16.75;;;3.25;;
72611;SDS011;60655;52.182;4.474;2023-07-31T07:17:30;18.23;;;2.90;;
72611;SDS011;60655;52.182;4.474;2023-07-31T07:19:34;19.23;;;3.08;;
72611;SDS011;60655;52.182;4.474;2023-07-31T07:21:41;19.02;;;3.15;;
72611;SDS011;60655;52.182;4.474;2023-07-31T07:23:44;20.85;;;3.80;;
72611;SDS011;60655;52.182;4.474;2023-07-31T07:25:45;13.43;;;2.92;;
72611;SDS011;60655;52.182;4.474;2023-07-31T07:27:46;12.88;;;2.78;;
72611;SDS011;60655;52.182;4.474;2023-07-31T07:29:49;12.52;;;2.72;;
72611;SDS011;60655;52.182;4.474;2023-07-31T07:31:51;15.27;;;2.63;;
72611;SDS011;60655;52.182;4.474;2023-07-31T07:33:51;17.10;;;3.28;;
72611;SDS011;60655;52.182;4.474;2023-07-31T07:35:52;10.95;;;2.63;;
72611;SDS011;60655;52.182;4.474;2023-07-31T07:37:53;14.43;;;2.63;;
72611;SDS011;60655;52.182;4.474;2023-07-31T07:39:55;17.67;;;2.95;;
72611;SDS011;60655;52.182;4.474;2023-07-31T07:41:56;14.02;;;3.33;;
72611;SDS011;60655;52.182;4.474;2023-07-31T07:43:57;19.38;;;2.88;;
72611;SDS011;60655;52.182;4.474;2023-07-31T07:45:58;14.57;;;2.85;;
72611;SDS011;60655;52.182;4.474;2023-07-31T07:47:59;18.13;;;3.55;;
72611;SDS011;60655;52.182;4.474;2023-07-31T07:50:00;23.23;;;2.85;;
72611;SDS011;60655;52.182;4.474;2023-07-31T07:52:01;19.40;;;2.75;;
72611;SDS011;60655;52.182;4.474;2023-07-31T07:54:03;23.23;;;3.60;;
72611;SDS011;60655;52.182;4.474;2023-07-31T07:56:04;19.05;;;3.13;;
72611;SDS011;60655;52.182;4.474;2023-07-31T07:58:05;14.68;;;3.00;;
72611;SDS011;60655;52.182;4.474;2023-07-31T08:00:06;17.17;;;3.08;;
72611;SDS011;60655;52.182;4.474;2023-07-31T08:02:09;16.75;;;3.05;;
72611;SDS011;60655;52.182;4.474;2023-07-31T08:04:10;17.88;;;2.53;;
72611;SDS011;60655;52.182;4.474;2023-07-31T08:06:11;19.30;;;3.00;;
72611;SDS011;60655;52.182;4.474;2023-07-31T08:08:15;13.88;;;2.80;;
72611;SDS011;60655;52.182;4.474;2023-07-31T08:10:17;18.10;;;2.50;;
72611;SDS011;60655;52.182;4.474;2023-07-31T08:12:18;16.00;;;2.70;;
72611;SDS011;60655;52.182;4.474;2023-07-31T08:14:19;22.33;;;2.72;;
72611;SDS011;60655;52.182;4.474;2023-07-31T08:16:20;16.30;;;3.10;;
72611;SDS011;60655;52.182;4.474;2023-07-31T08:18:21;17.05;;;3.08;;
72611;SDS011;60655;52.182;4.474;2023-07-31T08:20:22;23.10;;;3.00;;
72611;SDS011;60655;52.182;4.474;2023-07-31T08:22:23;17.25;;;2.95;;
72611;SDS011;60655;52.182;4.474;2023-07-31T08:24:24;28.20;;;3.35;;
72611;SDS011;60655;52.182;4.474;2023-07-31T08:26:25;28.02;;;3.53;;
72611;SDS011;60655;52.182;4.474;2023-07-31T08:28:27;18.80;;;2.95;;
72611;SDS011;60655;52.182;4.474;2023-07-31T08:30:28;26.63;;;3.05;;
72611;SDS011;60655;52.182;4.474;2023-07-31T08:32:29;21.30;;;2.97;;
72611;SDS011;60655;52.182;4.474;2023-07-31T08:34:30;21.38;;;2.72;;
72611;SDS011;60655;52.182;4.474;2023-07-31T08:36:31;23.10;;;3.50;;
72611;SDS011;60655;52.182;4.474;2023-07-31T08:38:32;18.40;;;2.90;;
72611;SDS011;60655;52.182;4.474;2023-07-31T08:40:35;18.65;;;2.70;;
72611;SDS011;60655;52.182;4.474;2023-07-31T08:42:45;20.73;;;3.95;;
72611;SDS011;60655;52.182;4.474;2023-07-31T08:44:47;20.02;;;2.97;;
72611;SDS011;60655;52.182;4.474;2023-07-31T08:46:49;23.15;;;3.15;;
72611;SDS011;60655;52.182;4.474;2023-07-31T08:48:50;28.20;;;3.55;;
72611;SDS011;60655;52.182;4.474;2023-07-31T08:50:52;19.35;;;3.10;;
72611;SDS011;60655;52.182;4.474;2023-07-31T08:52:53;24.95;;;3.05;;
72611;SDS011;60655;52.182;4.474;2023-07-31T08:54:54;23.48;;;3.20;;
72611;SDS011;60655;52.182;4.474;2023-07-31T08:56:55;18.85;;;2.63;;
72611;SDS011;60655;52.182;4.474;2023-07-31T08:58:58;17.45;;;2.97;;
72611;SDS011;60655;52.182;4.474;2023-07-31T09:01:03;14.68;;;2.53;;
72611;SDS011;60655;52.182;4.474;2023-07-31T09:03:09;24.02;;;3.40;;
72611;SDS011;60655;52.182;4.474;2023-07-31T09:05:13;23.20;;;3.35;;
72611;SDS011;60655;52.182;4.474;2023-07-31T09:07:15;15.13;;;2.15;;
72611;SDS011;60655;52.182;4.474;2023-07-31T09:09:17;17.48;;;3.28;;
72611;SDS011;60655;52.182;4.474;2023-07-31T09:11:18;20.08;;;2.35;;
72611;SDS011;60655;52.182;4.474;2023-07-31T09:13:19;15.50;;;2.47;;
72611;SDS011;60655;52.182;4.474;2023-07-31T09:15:20;25.63;;;3.60;;
72611;SDS011;60655;52.182;4.474;2023-07-31T09:17:32;22.90;;;3.47;;
72611;SDS011;60655;52.182;4.474;2023-07-31T09:19:35;20.90;;;3.15;;
72611;SDS011;60655;52.182;4.474;2023-07-31T09:21:49;22.55;;;5.25;;
72611;SDS011;60655;52.182;4.474;2023-07-31T09:23:50;24.08;;;3.80;;
72611;SDS011;60655;52.182;4.474;2023-07-31T09:25:54;13.73;;;2.70;;
72611;SDS011;60655;52.182;4.474;2023-07-31T09:27:59;20.83;;;2.78;;
72611;SDS011;60655;52.182;4.474;2023-07-31T09:30:02;15.60;;;3.00;;
72611;SDS011;60655;52.182;4.474;2023-07-31T09:32:03;16.15;;;2.70;;
72611;SDS011;60655;52.182;4.474;2023-07-31T09:34:04;23.38;;;2.67;;
72611;SDS011;60655;52.182;4.474;2023-07-31T09:36:05;18.45;;;2.78;;
72611;SDS011;60655;52.182;4.474;2023-07-31T09:38:10;19.05;;;2.67;;
72611;SDS011;60655;52.182;4.474;2023-07-31T09:40:12;17.80;;;2.83;;
72611;SDS011;60655;52.182;4.474;2023-07-31T09:42:26;19.70;;;2.50;;
72611;SDS011;60655;52.182;4.474;2023-07-31T09:44:38;14.32;;;2.53;;
72611;SDS011;60655;52.182;4.474;2023-07-31T09:46:41;15.57;;;2.60;;
72611;SDS011;60655;52.182;4.474;2023-07-31T09:48:43;11.95;;;1.90;;
72611;SDS011;60655;52.182;4.474;2023-07-31T09:50:45;13.07;;;2.42;;
72611;SDS011;60655;52.182;4.474;2023-07-31T09:52:47;15.60;;;2.58;;
72611;SDS011;60655;52.182;4.474;2023-07-31T09:54:47;15.68;;;2.60;;
72611;SDS011;60655;52.182;4.474;2023-07-31T09:56:49;14.13;;;2.75;;
72611;SDS011;60655;52.182;4.474;2023-07-31T09:58:50;17.63;;;2.72;;
72611;SDS011;60655;52.182;4.474;2023-07-31T10:00:51;19.30;;;2.97;;
72611;SDS011;60655;52.182;4.474;2023-07-31T10:02:52;16.13;;;2.95;;
72611;SDS011;60655;52.182;4.474;2023-07-31T10:04:55;15.20;;;2.65;;
72611;SDS011;60655;52.182;4.474;2023-07-31T10:06:58;14.20;;;2.63;;
72611;SDS011;60655;52.182;4.474;2023-07-31T10:09:03;19.50;;;2.97;;
72611;SDS011;60655;52.182;4.474;2023-07-31T10:11:06;15.27;;;2.72;;
72611;SDS011;60655;52.182;4.474;2023-07-31T10:13:10;19.98;;;2.80;;
72611;SDS011;60655;52.182;4.474;2023-07-31T10:15:12;17.58;;;2.85;;
72611;SDS011;60655;52.182;4.474;2023-07-31T10:17:15;17.15;;;2.83;;
72611;SDS011;60655;52.182;4.474;2023-07-31T10:19:18;15.13;;;3.17;;
72611;SDS011;60655;52.182;4.474;2023-07-31T10:21:19;19.25;;;2.80;;
72611;SDS011;60655;52.182;4.474;2023-07-31T10:23:20;14.73;;;2.42;;
72611;SDS011;60655;52.182;4.474;2023-07-31T10:25:23;15.10;;;3.00;;
72611;SDS011;60655;52.182;4.474;2023-07-31T10:27:25;12.80;;;2.53;;
72611;SDS011;60655;52.182;4.474;2023-07-31T10:29:26;15.35;;;2.53;;
72611;SDS011;60655;52.182;4.474;2023-07-31T10:31:30;18.13;;;2.75;;
72611;SDS011;60655;52.182;4.474;2023-07-31T10:33:32;16.17;;;2.72;;
72611;SDS011;60655;52.182;4.474;2023-07-31T10:35:33;20.58;;;3.30;;
72611;SDS011;60655;52.182;4.474;2023-07-31T10:37:38;18.35;;;2.95;;
72611;SDS011;60655;52.182;4.474;2023-07-31T10:39:40;18.98;;;3.40;;
72611;SDS011;60655;52.182;4.474;2023-07-31T10:41:41;13.88;;;2.40;;
72611;SDS011;60655;52.182;4.474;2023-07-31T10:43:42;15.18;;;2.60;;
72611;SDS011;60655;52.182;4.474;2023-07-31T10:45:46;15.43;;;2.63;;
72611;SDS011;60655;52.182;4.474;2023-07-31T10:47:49;13.15;;;2.35;;
72611;SDS011;60655;52.182;4.474;2023-07-31T10:49:50;15.30;;;2.88;;
72611;SDS011;60655;52.182;4.474;2023-07-31T10:51:51;13.43;;;2.80;;
72611;SDS011;60655;52.182;4.474;2023-07-31T10:54:09;10.95;;;2.33;;
72611;SDS011;60655;52.182;4.474;2023-07-31T10:56:19;17.48;;;3.00;;
72611;SDS011;60655;52.182;4.474;2023-07-31T10:58:23;14.90;;;2.50;;
72611;SDS011;60655;52.182;4.474;2023-07-31T11:00:27;13.23;;;2.42;;
72611;SDS011;60655;52.182;4.474;2023-07-31T11:02:29;14.52;;;2.78;;
72611;SDS011;60655;52.182;4.474;2023-07-31T11:04:33;12.93;;;2.42;;
72611;SDS011;60655;52.182;4.474;2023-07-31T11:06:34;15.95;;;2.60;;
72611;SDS011;60655;52.182;4.474;2023-07-31T11:08:43;17.13;;;2.40;;
72611;SDS011;60655;52.182;4.474;2023-07-31T11:11:10;15.82;;;2.25;;
72611;SDS011;60655;52.182;4.474;2023-07-31T11:13:11;13.30;;;2.25;;
72611;SDS011;60655;52.182;4.474;2023-07-31T11:15:13;10.27;;;1.95;;
72611;SDS011;60655;52.182;4.474;2023-07-31T11:17:14;14.48;;;2.25;;
72611;SDS011;60655;52.182;4.474;2023-07-31T11:19:15;15.02;;;2.55;;
72611;SDS011;60655;52.182;4.474;2023-07-31T11:21:24;16.38;;;2.60;;
72611;SDS011;60655;52.182;4.474;2023-07-31T11:23:25;17.38;;;2.45;;
72611;SDS011;60655;52.182;4.474;2023-07-31T11:25:26;13.02;;;2.45;;
72611;SDS011;60655;52.182;4.474;2023-07-31T11:27:28;11.88;;;1.75;;
72611;SDS011;60655;52.182;4.474;2023-07-31T11:29:30;13.32;;;2.05;;
72611;SDS011;60655;52.182;4.474;2023-07-31T11:31:31;13.52;;;2.13;;
72611;SDS011;60655;52.182;4.474;2023-07-31T11:33:32;13.88;;;2.55;;
72611;SDS011;60655;52.182;4.474;2023-07-31T11:35:33;9.20;;;1.92;;
72611;SDS011;60655;52.182;4.474;2023-07-31T11:37:42;10.02;;;1.95;;
72611;SDS011;60655;52.182;4.474;2023-07-31T11:39:57;12.13;;;2.00;;
72611;SDS011;60655;52.182;4.474;2023-07-31T11:41:59;11.68;;;2.45;;
72611;SDS011;60655;52.182;4.474;2023-07-31T11:44:01;16.42;;;2.15;;
72611;SDS011;60655;52.182;4.474;2023-07-31T11:46:03;10.85;;;2.20;;
72611;SDS011;60655;52.182;4.474;2023-07-31T11:48:04;11.77;;;2.33;;
72611;SDS011;60655;52.182;4.474;2023-07-31T11:50:05;15.88;;;2.03;;
72611;SDS011;60655;52.182;4.474;2023-07-31T11:52:10;13.95;;;2.20;;
72611;SDS011;60655;52.182;4.474;2023-07-31T11:54:13;15.60;;;2.03;;
72611;SDS011;60655;52.182;4.474;2023-07-31T11:56:16;14.27;;;1.75;;
72611;SDS011;60655;52.182;4.474;2023-07-31T11:58:18;9.25;;;1.73;;
72611;SDS011;60655;52.182;4.474;2023-07-31T12:00:21;7.45;;;1.67;;
72611;SDS011;60655;52.182;4.474;2023-07-31T12:02:22;9.45;;;1.77;;
72611;SDS011;60655;52.182;4.474;2023-07-31T12:04:24;12.43;;;1.90;;
72611;SDS011;60655;52.182;4.474;2023-07-31T12:06:33;8.50;;;1.67;;
72611;SDS011;60655;52.182;4.474;2023-07-31T12:08:36;9.55;;;1.90;;